This is the latest recevied weather packets stored in our database for station/object N7NIP. If no packets are shown the sender has not sent any weather packets the latest 10 day(s).
| Time | Temp. | Humidity | Pressure | Rain* | Wind** | Luminosity | Snow |
|---|---|---|---|---|---|---|---|
| 1778087702 | 12.78° C | 93% | 1034.2 hPa | 0 mm | - | 136 W/m² | - |
| 1778087399 | 12.22° C | 92% | 1034.1 hPa | 0 mm | - | 128 W/m² | - |
| 1778087096 | 12.22° C | 93% | 1034.1 hPa | 0 mm | - | 123 W/m² | - |
| 1778086794 | 12.22° C | 93% | 1034.2 hPa | 0 mm | - | 99 W/m² | - |
| 1778086492 | 12.22° C | 93% | 1034.2 hPa | 0 mm | - | 104 W/m² | - |
| 1778086188 | 12.22° C | 94% | 1034.1 hPa | 0 mm | - | 103 W/m² | - |
| 1778085885 | 12.22° C | 93% | 1034 hPa | 0 mm | - | 87 W/m² | - |
| 1778085582 | 12.22° C | 93% | 1034.1 hPa | 0 mm | - | 92 W/m² | - |
| 1778085277 | 12.22° C | 93% | 1033.9 hPa | 0 mm | - | 82 W/m² | - |
| 1778084972 | 12.22° C | 94% | 1033.9 hPa | 0 mm | - | 81 W/m² | - |
| 1778084670 | 12.22° C | 95% | 1033.9 hPa | 0 mm | - | 81 W/m² | - |
| 1778084367 | 12.22° C | 95% | 1033.8 hPa | 0 mm | - | 90 W/m² | - |
| 1778084066 | 11.67° C | 95% | 1033.8 hPa | 0 mm | - | 81 W/m² | - |
| 1778083763 | 11.67° C | 96% | 1033.8 hPa | 0 mm | - | 87 W/m² | - |
| 1778083460 | 11.67° C | 96% | 1033.7 hPa | 0 mm | - | 96 W/m² | - |
| 1778083157 | 11.67° C | 97% | 1033.8 hPa | 0 mm | - | 82 W/m² | - |
| 1778082854 | 11.67° C | 97% | 1033.5 hPa | 0 mm | - | 98 W/m² | - |
| 1778081731 | 11.67° C | 97% | 1033.6 hPa | 0 mm | - | 61 W/m² | - |
| 1778081428 | 11.67° C | 98% | 1033.6 hPa | 0 mm | - | 61 W/m² | - |
| 1778081125 | 11.67° C | 97% | 1033.9 hPa | 0 mm | - | 48 W/m² | - |
| 1778080823 | 11.11° C | 97% | 1033.9 hPa | 0 mm | - | 38 W/m² | - |
| 1778080521 | 11.11° C | 98% | 1034 hPa | 0 mm | - | 38 W/m² | - |
| 1778080218 | 11.11° C | 98% | 1033.8 hPa | 0 mm | - | 47 W/m² | - |
| 1778079914 | 11.11° C | 98% | 1033.9 hPa | 0 mm | - | 41 W/m² | - |
| 1778079611 | 11.11° C | 98% | 1033.7 hPa | 0 mm | - | 45 W/m² | - |
* Rain latest hour (hover to see other rain measurements)
** Current wind speed in m/s (hover to see current wind gust speed)